KBAB/BAB METAR and TAF weather

Enter ICAO airport designator
Station Type Date Time Source
KBAB METAR 2023/02/05 13:55 UTC NOAA

KBAB 051355Z AUTO 16011KT 10SM BKN039 09/08 A3009 RMK AO2 RAE04RAB10E19 SLP193 P0000 T00910080 $


Station Type Date Time Source
KBAB Decoded METAR 2023/02/05 13:55 UTC NOAA

Marysville, Beale Air Force Base, CA, United States (KBAB) 39-08N 121-26W
Feb 05, 2023 - 08:55 AM EST / 2023.02.05 1355 UTC
Wind: from the SSE (160 degrees) at 13 MPH (11 KT):0
Visibility: 10 mile(s):0
Sky conditions: mostly cloudy
Precipitation last hour: A trace
Temperature: 48.4 F (9.1 C)
Dew Point: 46.4 F (8.0 C)
Relative Humidity: 92%
Pressure (altimeter): 30.09 in. Hg (1018 hPa)
ob: KBAB 051355Z AUTO 16011KT 10SM BKN039 09/08 A3009 RMK AO2 RAE04RAB10E19 SLP193 P0000 T00910080
cycle: 14

Station Type Date Time Source
KBAB TAF 2023/02/04 23:21 UTC NOAA

TAF TAF
AMD KBAB 042300Z 0423/0601 21009KT 9000 -RA OVC060 620709 621604 QNH2998INS
BECMG 0500/0501 15010G15KT 8000 -RA OVC030 620709 621604 QNH2994INS
BECMG 0503/0504 16015G25KT 8000 -RA OVC030 620709 621604 510009 QNH2993INS
BECMG 0505/0506 17020G30KT 4800 SHRA OVC015 640709 641604 510009 QNH2994INS
TEMPO 0506/0508 -TSRA OVC010CB
BECMG 0508/0509 19015G25KT 8000 -SHRA BKN030 640709 510009 QNH2997INS
BECMG 0512/0513 17010G15KT 9999 VCSH BKN030 640709 QNH3006INS
BECMG 0517/0518 15012KT 9999 NSW SCT030 QNH3011INS TX12/0500Z TN07/0515Z LAST NO
AMDS AFT 0423 NEXT 0613

Example: see airport list